sensor_id;sensor_type;location;lat;lon;timestamp;temperature;humidity
9790;DHT22;4934;50.852;8.098;2022-07-01T00:00:42;14.30;99.90
9790;DHT22;4934;50.852;8.098;2022-07-01T00:03:08;14.20;99.90
9790;DHT22;4934;50.852;8.098;2022-07-01T00:05:33;14.10;99.90
9790;DHT22;4934;50.852;8.098;2022-07-01T00:07:59;14.10;99.90
9790;DHT22;4934;50.852;8.098;2022-07-01T00:10:25;14.10;99.90
9790;DHT22;4934;50.852;8.098;2022-07-01T00:12:50;14.10;99.90
9790;DHT22;4934;50.852;8.098;2022-07-01T00:15:16;14.00;99.90
9790;DHT22;4934;50.852;8.098;2022-07-01T00:17:41;13.90;99.90
9790;DHT22;4934;50.852;8.098;2022-07-01T00:20:09;13.80;99.90
9790;DHT22;4934;50.852;8.098;2022-07-01T00:22:35;13.70;99.90
9790;DHT22;4934;50.852;8.098;2022-07-01T00:25:01;13.70;99.90
9790;DHT22;4934;50.852;8.098;2022-07-01T00:27:27;13.50;99.90
9790;DHT22;4934;50.852;8.098;2022-07-01T00:29:53;13.40;99.90
9790;DHT22;4934;50.852;8.098;2022-07-01T00:32:18;13.30;99.90
9790;DHT22;4934;50.852;8.098;2022-07-01T00:34:44;13.30;99.90
9790;DHT22;4934;50.852;8.098;2022-07-01T00:37:10;13.20;99.90
9790;DHT22;4934;50.852;8.098;2022-07-01T00:39:35;13.20;99.90
9790;DHT22;4934;50.852;8.098;2022-07-01T00:42:04;13.30;99.90
9790;DHT22;4934;50.852;8.098;2022-07-01T00:44:30;13.30;99.90
9790;DHT22;4934;50.852;8.098;2022-07-01T00:46:57;13.40;99.90
9790;DHT22;4934;50.852;8.098;2022-07-01T00:49:24;13.20;99.90
9790;DHT22;4934;50.852;8.098;2022-07-01T00:51:51;13.20;99.90
9790;DHT22;4934;50.852;8.098;2022-07-01T00:54:18;13.20;99.90
9790;DHT22;4934;50.852;8.098;2022-07-01T00:56:44;13.20;99.90
9790;DHT22;4934;50.852;8.098;2022-07-01T00:59:10;13.30;99.90
9790;DHT22;4934;50.852;8.098;2022-07-01T01:01:35;13.20;99.90
9790;DHT22;4934;50.852;8.098;2022-07-01T01:04:02;13.00;99.90
9790;DHT22;4934;50.852;8.098;2022-07-01T01:06:27;13.10;99.90
9790;DHT22;4934;50.852;8.098;2022-07-01T01:08:53;13.10;99.90
9790;DHT22;4934;50.852;8.098;2022-07-01T01:11:19;13.00;99.90
9790;DHT22;4934;50.852;8.098;2022-07-01T01:13:45;13.10;99.90
9790;DHT22;4934;50.852;8.098;2022-07-01T01:16:22;13.10;99.90
9790;DHT22;4934;50.852;8.098;2022-07-01T01:18:48;13.20;99.90
9790;DHT22;4934;50.852;8.098;2022-07-01T01:21:15;13.20;99.90
9790;DHT22;4934;50.852;8.098;2022-07-01T01:23:41;13.30;99.90
9790;DHT22;4934;50.852;8.098;2022-07-01T01:26:20;13.30;99.90
9790;DHT22;4934;50.852;8.098;2022-07-01T01:28:47;13.30;99.90
9790;DHT22;4934;50.852;8.098;2022-07-01T01:31:14;13.30;99.90
9790;DHT22;4934;50.852;8.098;2022-07-01T01:33:40;13.40;99.90
9790;DHT22;4934;50.852;8.098;2022-07-01T01:36:06;13.40;99.90
9790;DHT22;4934;50.852;8.098;2022-07-01T01:38:36;13.50;99.90
9790;DHT22;4934;50.852;8.098;2022-07-01T01:41:05;13.50;99.90
9790;DHT22;4934;50.852;8.098;2022-07-01T01:43:31;13.60;99.90
9790;DHT22;4934;50.852;8.098;2022-07-01T01:46:00;13.60;99.90
9790;DHT22;4934;50.852;8.098;2022-07-01T01:48:27;13.60;99.90
9790;DHT22;4934;50.852;8.098;2022-07-01T01:50:53;13.60;99.90
9790;DHT22;4934;50.852;8.098;2022-07-01T01:53:19;13.70;99.90
9790;DHT22;4934;50.852;8.098;2022-07-01T01:55:44;13.70;99.90
9790;DHT22;4934;50.852;8.098;2022-07-01T01:58:10;13.70;99.90
9790;DHT22;4934;50.852;8.098;2022-07-01T02:00:35;13.70;99.90
9790;DHT22;4934;50.852;8.098;2022-07-01T02:03:01;13.80;99.90
9790;DHT22;4934;50.852;8.098;2022-07-01T02:05:26;13.80;99.90
9790;DHT22;4934;50.852;8.098;2022-07-01T02:07:52;13.80;99.90
9790;DHT22;4934;50.852;8.098;2022-07-01T02:10:18;13.70;99.90
9790;DHT22;4934;50.852;8.098;2022-07-01T02:12:43;13.70;99.90
9790;DHT22;4934;50.852;8.098;2022-07-01T02:15:09;13.70;99.90
9790;DHT22;4934;50.852;8.098;2022-07-01T02:17:35;13.80;99.90
9790;DHT22;4934;50.852;8.098;2022-07-01T02:20:01;13.70;99.90
9790;DHT22;4934;50.852;8.098;2022-07-01T02:22:26;13.80;99.90
9790;DHT22;4934;50.852;8.098;2022-07-01T02:24:52;13.80;99.90
9790;DHT22;4934;50.852;8.098;2022-07-01T02:27:17;13.80;99.90
9790;DHT22;4934;50.852;8.098;2022-07-01T02:29:44;13.70;99.90
9790;DHT22;4934;50.852;8.098;2022-07-01T02:32:09;13.70;99.90
9790;DHT22;4934;50.852;8.098;2022-07-01T02:34:35;13.70;99.90
9790;DHT22;4934;50.852;8.098;2022-07-01T02:37:01;13.70;99.90
9790;DHT22;4934;50.852;8.098;2022-07-01T02:39:26;13.70;99.90
9790;DHT22;4934;50.852;8.098;2022-07-01T02:41:52;13.70;99.90
9790;DHT22;4934;50.852;8.098;2022-07-01T02:44:36;13.70;99.90
9790;DHT22;4934;50.852;8.098;2022-07-01T02:47:02;13.70;99.90
9790;DHT22;4934;50.852;8.098;2022-07-01T02:49:27;13.70;99.90
9790;DHT22;4934;50.852;8.098;2022-07-01T02:51:53;13.80;99.90
9790;DHT22;4934;50.852;8.098;2022-07-01T02:54:19;13.70;99.90
9790;DHT22;4934;50.852;8.098;2022-07-01T02:56:45;13.80;99.90
9790;DHT22;4934;50.852;8.098;2022-07-01T02:59:10;13.80;99.90
9790;DHT22;4934;50.852;8.098;2022-07-01T03:01:36;13.80;99.90
9790;DHT22;4934;50.852;8.098;2022-07-01T03:04:02;13.70;99.90
9790;DHT22;4934;50.852;8.098;2022-07-01T03:06:28;13.80;99.90
9790;DHT22;4934;50.852;8.098;2022-07-01T03:08:53;13.70;99.90
9790;DHT22;4934;50.852;8.098;2022-07-01T03:11:19;13.60;99.90
9790;DHT22;4934;50.852;8.098;2022-07-01T03:13:44;13.50;99.90
9790;DHT22;4934;50.852;8.098;2022-07-01T03:16:10;13.60;99.90
9790;DHT22;4934;50.852;8.098;2022-07-01T03:18:36;13.60;99.90
9790;DHT22;4934;50.852;8.098;2022-07-01T03:21:01;13.50;99.90
9790;DHT22;4934;50.852;8.098;2022-07-01T03:23:27;13.50;99.90
9790;DHT22;4934;50.852;8.098;2022-07-01T03:25:52;13.60;99.90
9790;DHT22;4934;50.852;8.098;2022-07-01T03:28:18;13.60;99.90
9790;DHT22;4934;50.852;8.098;2022-07-01T03:30:44;13.50;99.90
9790;DHT22;4934;50.852;8.098;2022-07-01T03:33:09;13.50;99.90
9790;DHT22;4934;50.852;8.098;2022-07-01T03:35:35;13.40;99.90
9790;DHT22;4934;50.852;8.098;2022-07-01T03:38:00;13.40;99.90
9790;DHT22;4934;50.852;8.098;2022-07-01T03:40:26;13.30;99.90
9790;DHT22;4934;50.852;8.098;2022-07-01T03:42:52;13.30;99.90
9790;DHT22;4934;50.852;8.098;2022-07-01T03:45:18;13.10;99.90
9790;DHT22;4934;50.852;8.098;2022-07-01T03:47:50;13.10;99.90
9790;DHT22;4934;50.852;8.098;2022-07-01T03:50:16;13.10;99.90
9790;DHT22;4934;50.852;8.098;2022-07-01T03:52:42;13.20;99.90
9790;DHT22;4934;50.852;8.098;2022-07-01T03:55:09;13.10;99.90
9790;DHT22;4934;50.852;8.098;2022-07-01T03:57:35;13.10;99.90
9790;DHT22;4934;50.852;8.098;2022-07-01T04:00:01;13.00;99.90
9790;DHT22;4934;50.852;8.098;2022-07-01T04:02:27;13.00;99.90
9790;DHT22;4934;50.852;8.098;2022-07-01T04:04:52;13.00;99.90
9790;DHT22;4934;50.852;8.098;2022-07-01T04:07:18;13.10;99.90
9790;DHT22;4934;50.852;8.098;2022-07-01T04:09:44;13.10;99.90
9790;DHT22;4934;50.852;8.098;2022-07-01T04:12:10;13.10;99.90
9790;DHT22;4934;50.852;8.098;2022-07-01T04:14:38;13.20;99.90
9790;DHT22;4934;50.852;8.098;2022-07-01T04:17:03;13.30;99.90
9790;DHT22;4934;50.852;8.098;2022-07-01T04:19:30;13.20;99.90
9790;DHT22;4934;50.852;8.098;2022-07-01T04:21:55;13.20;99.90
9790;DHT22;4934;50.852;8.098;2022-07-01T04:24:39;13.20;99.90
9790;DHT22;4934;50.852;8.098;2022-07-01T04:27:05;13.20;99.90
9790;DHT22;4934;50.852;8.098;2022-07-01T04:29:30;13.20;99.90
9790;DHT22;4934;50.852;8.098;2022-07-01T04:31:57;13.30;99.90
9790;DHT22;4934;50.852;8.098;2022-07-01T04:34:23;13.20;99.90
9790;DHT22;4934;50.852;8.098;2022-07-01T04:36:49;13.30;99.90
9790;DHT22;4934;50.852;8.098;2022-07-01T04:39:14;13.40;99.90
9790;DHT22;4934;50.852;8.098;2022-07-01T04:41:40;13.30;99.90
9790;DHT22;4934;50.852;8.098;2022-07-01T04:44:24;13.40;99.90
9790;DHT22;4934;50.852;8.098;2022-07-01T04:46:50;13.30;99.90
9790;DHT22;4934;50.852;8.098;2022-07-01T04:49:16;13.40;99.90
9790;DHT22;4934;50.852;8.098;2022-07-01T04:51:42;13.40;99.90
9790;DHT22;4934;50.852;8.098;2022-07-01T04:54:07;13.40;99.90
9790;DHT22;4934;50.852;8.098;2022-07-01T04:56:34;13.40;99.90
9790;DHT22;4934;50.852;8.098;2022-07-01T04:59:01;13.50;99.90
9790;DHT22;4934;50.852;8.098;2022-07-01T05:01:27;13.40;99.90
9790;DHT22;4934;50.852;8.098;2022-07-01T05:03:55;13.40;99.90
9790;DHT22;4934;50.852;8.098;2022-07-01T05:06:20;13.30;99.90
9790;DHT22;4934;50.852;8.098;2022-07-01T05:08:46;13.40;99.90
9790;DHT22;4934;50.852;8.098;2022-07-01T05:11:12;13.10;99.90
9790;DHT22;4934;50.852;8.098;2022-07-01T05:13:38;13.10;99.90
9790;DHT22;4934;50.852;8.098;2022-07-01T05:16:04;13.20;99.90
9790;DHT22;4934;50.852;8.098;2022-07-01T05:18:30;13.30;99.90
9790;DHT22;4934;50.852;8.098;2022-07-01T05:21:15;13.40;99.90
9790;DHT22;4934;50.852;8.098;2022-07-01T05:23:59;13.40;99.90
9790;DHT22;4934;50.852;8.098;2022-07-01T05:26:24;13.50;99.90
9790;DHT22;4934;50.852;8.098;2022-07-01T05:28:52;13.60;99.90
9790;DHT22;4934;50.852;8.098;2022-07-01T05:31:18;13.70;99.90
9790;DHT22;4934;50.852;8.098;2022-07-01T05:33:44;13.70;99.90
9790;DHT22;4934;50.852;8.098;2022-07-01T05:36:10;13.60;99.90
9790;DHT22;4934;50.852;8.098;2022-07-01T05:38:35;13.70;99.90
9790;DHT22;4934;50.852;8.098;2022-07-01T05:41:01;13.70;99.90
9790;DHT22;4934;50.852;8.098;2022-07-01T05:43:27;13.70;99.90
9790;DHT22;4934;50.852;8.098;2022-07-01T05:45:52;13.70;99.90
9790;DHT22;4934;50.852;8.098;2022-07-01T05:48:18;13.70;99.90
9790;DHT22;4934;50.852;8.098;2022-07-01T05:50:43;13.50;99.90
9790;DHT22;4934;50.852;8.098;2022-07-01T05:53:09;13.50;99.90
9790;DHT22;4934;50.852;8.098;2022-07-01T05:55:35;13.60;99.90
9790;DHT22;4934;50.852;8.098;2022-07-01T05:58:01;13.70;99.90
9790;DHT22;4934;50.852;8.098;2022-07-01T06:00:27;13.70;99.90
9790;DHT22;4934;50.852;8.098;2022-07-01T06:02:53;13.60;99.90
9790;DHT22;4934;50.852;8.098;2022-07-01T06:05:19;13.70;99.90
9790;DHT22;4934;50.852;8.098;2022-07-01T06:07:44;13.60;99.90
9790;DHT22;4934;50.852;8.098;2022-07-01T06:10:10;13.60;99.90
9790;DHT22;4934;50.852;8.098;2022-07-01T06:12:37;13.70;99.90
9790;DHT22;4934;50.852;8.098;2022-07-01T06:15:05;13.70;99.90
9790;DHT22;4934;50.852;8.098;2022-07-01T06:17:31;13.80;99.90
9790;DHT22;4934;50.852;8.098;2022-07-01T06:19:56;13.80;99.90
9790;DHT22;4934;50.852;8.098;2022-07-01T06:22:22;13.90;99.90
9790;DHT22;4934;50.852;8.098;2022-07-01T06:24:47;14.10;99.90
9790;DHT22;4934;50.852;8.098;2022-07-01T06:27:13;14.10;99.90
9790;DHT22;4934;50.852;8.098;2022-07-01T06:29:39;14.10;99.90
9790;DHT22;4934;50.852;8.098;2022-07-01T06:32:05;14.20;99.90
9790;DHT22;4934;50.852;8.098;2022-07-01T06:34:31;14.40;99.90
9790;DHT22;4934;50.852;8.098;2022-07-01T06:36:57;14.60;99.90
9790;DHT22;4934;50.852;8.098;2022-07-01T06:39:26;14.70;99.90
9790;DHT22;4934;50.852;8.098;2022-07-01T06:41:52;14.70;99.90
9790;DHT22;4934;50.852;8.098;2022-07-01T06:44:18;14.60;99.90
9790;DHT22;4934;50.852;8.098;2022-07-01T06:46:43;14.70;99.90
9790;DHT22;4934;50.852;8.098;2022-07-01T06:49:09;14.70;99.90
9790;DHT22;4934;50.852;8.098;2022-07-01T06:51:35;14.80;99.90
9790;DHT22;4934;50.852;8.098;2022-07-01T06:54:00;14.90;99.90
9790;DHT22;4934;50.852;8.098;2022-07-01T06:56:26;14.90;99.90
9790;DHT22;4934;50.852;8.098;2022-07-01T06:58:52;14.70;99.90
9790;DHT22;4934;50.852;8.098;2022-07-01T07:01:17;14.70;99.90
9790;DHT22;4934;50.852;8.098;2022-07-01T07:03:43;14.80;99.90
9790;DHT22;4934;50.852;8.098;2022-07-01T07:06:09;14.80;99.90
9790;DHT22;4934;50.852;8.098;2022-07-01T07:08:34;14.70;99.90
9790;DHT22;4934;50.852;8.098;2022-07-01T07:11:00;14.70;99.90
9790;DHT22;4934;50.852;8.098;2022-07-01T07:13:28;14.70;99.90
9790;DHT22;4934;50.852;8.098;2022-07-01T07:15:54;15.10;99.90
9790;DHT22;4934;50.852;8.098;2022-07-01T07:18:19;15.30;99.90
9790;DHT22;4934;50.852;8.098;2022-07-01T07:20:45;15.40;99.90
9790;DHT22;4934;50.852;8.098;2022-07-01T07:23:13;15.40;99.90
9790;DHT22;4934;50.852;8.098;2022-07-01T07:25:39;15.30;99.90
9790;DHT22;4934;50.852;8.098;2022-07-01T07:28:05;15.30;99.90
9790;DHT22;4934;50.852;8.098;2022-07-01T07:30:31;15.50;99.90
9790;DHT22;4934;50.852;8.098;2022-07-01T07:32:56;15.40;99.90
9790;DHT22;4934;50.852;8.098;2022-07-01T07:35:22;15.30;99.90
9790;DHT22;4934;50.852;8.098;2022-07-01T07:37:47;15.30;99.90
9790;DHT22;4934;50.852;8.098;2022-07-01T07:40:13;15.40;99.90
9790;DHT22;4934;50.852;8.098;2022-07-01T07:42:47;15.40;99.90
9790;DHT22;4934;50.852;8.098;2022-07-01T07:45:14;15.30;99.90
9790;DHT22;4934;50.852;8.098;2022-07-01T07:47:44;15.40;99.90
9790;DHT22;4934;50.852;8.098;2022-07-01T07:50:11;15.30;99.90
9790;DHT22;4934;50.852;8.098;2022-07-01T07:52:37;15.30;99.90
9790;DHT22;4934;50.852;8.098;2022-07-01T07:55:03;15.30;99.90
9790;DHT22;4934;50.852;8.098;2022-07-01T07:57:30;15.30;99.90
9790;DHT22;4934;50.852;8.098;2022-07-01T07:59:56;15.30;99.90
9790;DHT22;4934;50.852;8.098;2022-07-01T08:02:22;15.50;99.90
9790;DHT22;4934;50.852;8.098;2022-07-01T08:04:49;15.50;99.90
9790;DHT22;4934;50.852;8.098;2022-07-01T08:07:15;15.50;99.90
9790;DHT22;4934;50.852;8.098;2022-07-01T08:09:41;15.50;99.90
9790;DHT22;4934;50.852;8.098;2022-07-01T08:12:11;15.40;99.90
9790;DHT22;4934;50.852;8.098;2022-07-01T08:14:37;15.40;99.90
9790;DHT22;4934;50.852;8.098;2022-07-01T08:17:03;15.30;99.90
9790;DHT22;4934;50.852;8.098;2022-07-01T08:19:28;15.20;99.90
9790;DHT22;4934;50.852;8.098;2022-07-01T08:21:54;15.10;99.90
9790;DHT22;4934;50.852;8.098;2022-07-01T08:24:19;15.20;99.90
9790;DHT22;4934;50.852;8.098;2022-07-01T08:26:45;15.30;99.90
9790;DHT22;4934;50.852;8.098;2022-07-01T08:29:11;15.20;99.90
9790;DHT22;4934;50.852;8.098;2022-07-01T08:31:36;15.30;99.90
9790;DHT22;4934;50.852;8.098;2022-07-01T08:34:02;15.10;99.90
9790;DHT22;4934;50.852;8.098;2022-07-01T08:36:27;14.90;99.90
9790;DHT22;4934;50.852;8.098;2022-07-01T08:38:53;15.10;99.90
9790;DHT22;4934;50.852;8.098;2022-07-01T08:41:19;15.20;99.90
9790;DHT22;4934;50.852;8.098;2022-07-01T08:43:45;15.50;99.90
9790;DHT22;4934;50.852;8.098;2022-07-01T08:46:11;15.80;99.90
9790;DHT22;4934;50.852;8.098;2022-07-01T08:48:44;15.90;99.90
9790;DHT22;4934;50.852;8.098;2022-07-01T08:51:10;15.70;99.90
9790;DHT22;4934;50.852;8.098;2022-07-01T08:53:36;15.70;99.90
9790;DHT22;4934;50.852;8.098;2022-07-01T08:56:03;15.90;99.90
9790;DHT22;4934;50.852;8.098;2022-07-01T08:58:50;16.10;99.90
9790;DHT22;4934;50.852;8.098;2022-07-01T09:01:18;15.90;99.90
9790;DHT22;4934;50.852;8.098;2022-07-01T09:03:46;15.80;99.90
9790;DHT22;4934;50.852;8.098;2022-07-01T09:06:17;15.80;99.90
9790;DHT22;4934;50.852;8.098;2022-07-01T09:08:44;15.80;99.90
9790;DHT22;4934;50.852;8.098;2022-07-01T09:11:15;15.70;99.90
9790;DHT22;4934;50.852;8.098;2022-07-01T09:13:42;15.80;99.90
9790;DHT22;4934;50.852;8.098;2022-07-01T09:16:16;15.70;99.90
9790;DHT22;4934;50.852;8.098;2022-07-01T09:19:02;15.70;99.90
9790;DHT22;4934;50.852;8.098;2022-07-01T09:21:30;15.60;99.90
9790;DHT22;4934;50.852;8.098;2022-07-01T09:23:56;15.80;99.90
9790;DHT22;4934;50.852;8.098;2022-07-01T09:26:22;16.20;99.90
9790;DHT22;4934;50.852;8.098;2022-07-01T09:28:54;16.40;99.90
9790;DHT22;4934;50.852;8.098;2022-07-01T09:31:21;16.70;99.90
9790;DHT22;4934;50.852;8.098;2022-07-01T09:34:05;16.90;99.90
9790;DHT22;4934;50.852;8.098;2022-07-01T09:36:31;17.00;99.90
9790;DHT22;4934;50.852;8.098;2022-07-01T09:38:57;17.10;99.90
9790;DHT22;4934;50.852;8.098;2022-07-01T09:41:27;17.40;99.90
9790;DHT22;4934;50.852;8.098;2022-07-01T09:43:52;16.90;99.90
9790;DHT22;4934;50.852;8.098;2022-07-01T09:46:18;16.90;99.90
9790;DHT22;4934;50.852;8.098;2022-07-01T09:48:45;17.10;99.90
9790;DHT22;4934;50.852;8.098;2022-07-01T09:51:16;17.30;99.90
9790;DHT22;4934;50.852;8.098;2022-07-01T09:53:42;17.60;99.90
9790;DHT22;4934;50.852;8.098;2022-07-01T09:56:08;18.00;99.90
9790;DHT22;4934;50.852;8.098;2022-07-01T09:58:36;18.30;99.90
9790;DHT22;4934;50.852;8.098;2022-07-01T10:01:04;18.30;99.90
9790;DHT22;4934;50.852;8.098;2022-07-01T10:03:31;18.10;99.90
9790;DHT22;4934;50.852;8.098;2022-07-01T10:06:24;18.10;99.90
9790;DHT22;4934;50.852;8.098;2022-07-01T10:12:00;17.20;99.90
9790;DHT22;4934;50.852;8.098;2022-07-01T10:14:29;17.50;99.90
9790;DHT22;4934;50.852;8.098;2022-07-01T10:16:55;17.70;99.90
9790;DHT22;4934;50.852;8.098;2022-07-01T10:21:52;17.80;99.90
9790;DHT22;4934;50.852;8.098;2022-07-01T10:24:19;18.10;99.90
9790;DHT22;4934;50.852;8.098;2022-07-01T10:26:46;18.10;99.90
9790;DHT22;4934;50.852;8.098;2022-07-01T10:29:28;18.20;99.90
9790;DHT22;4934;50.852;8.098;2022-07-01T10:31:59;18.60;99.90
9790;DHT22;4934;50.852;8.098;2022-07-01T10:34:25;18.20;99.90
9790;DHT22;4934;50.852;8.098;2022-07-01T10:37:03;18.50;99.90
9790;DHT22;4934;50.852;8.098;2022-07-01T10:39:29;18.90;99.90
9790;DHT22;4934;50.852;8.098;2022-07-01T10:41:58;19.30;99.90
9790;DHT22;4934;50.852;8.098;2022-07-01T10:44:25;19.70;99.90
9790;DHT22;4934;50.852;8.098;2022-07-01T10:47:03;19.90;99.90
9790;DHT22;4934;50.852;8.098;2022-07-01T10:52:15;20.40;99.90
9790;DHT22;4934;50.852;8.098;2022-07-01T11:02:31;20.90;99.90
9790;DHT22;4934;50.852;8.098;2022-07-01T11:07:26;20.90;99.90
9790;DHT22;4934;50.852;8.098;2022-07-01T11:09:52;20.80;99.90
9790;DHT22;4934;50.852;8.098;2022-07-01T11:12:17;20.70;99.90
9790;DHT22;4934;50.852;8.098;2022-07-01T11:14:45;20.50;99.90
9790;DHT22;4934;50.852;8.098;2022-07-01T11:17:11;20.80;99.90
9790;DHT22;4934;50.852;8.098;2022-07-01T11:19:37;20.80;99.90
9790;DHT22;4934;50.852;8.098;2022-07-01T11:22:03;20.30;99.90
9790;DHT22;4934;50.852;8.098;2022-07-01T11:24:30;20.00;99.90
9790;DHT22;4934;50.852;8.098;2022-07-01T11:27:06;20.50;99.90
9790;DHT22;4934;50.852;8.098;2022-07-01T11:29:33;21.00;99.90
9790;DHT22;4934;50.852;8.098;2022-07-01T11:31:59;21.40;99.90
9790;DHT22;4934;50.852;8.098;2022-07-01T11:34:27;21.60;99.90
9790;DHT22;4934;50.852;8.098;2022-07-01T11:36:53;21.60;99.90
9790;DHT22;4934;50.852;8.098;2022-07-01T11:39:38;21.70;99.90
9790;DHT22;4934;50.852;8.098;2022-07-01T11:42:07;21.70;99.90
9790;DHT22;4934;50.852;8.098;2022-07-01T11:44:38;22.30;99.90
9790;DHT22;4934;50.852;8.098;2022-07-01T11:47:06;22.70;99.90
9790;DHT22;4934;50.852;8.098;2022-07-01T11:49:32;22.90;99.90
9790;DHT22;4934;50.852;8.098;2022-07-01T11:52:05;23.00;99.90
9790;DHT22;4934;50.852;8.098;2022-07-01T11:54:44;22.90;99.90
9790;DHT22;4934;50.852;8.098;2022-07-01T11:57:16;23.00;99.90
9790;DHT22;4934;50.852;8.098;2022-07-01T11:59:43;22.80;99.90
9790;DHT22;4934;50.852;8.098;2022-07-01T12:02:09;22.90;99.90
9790;DHT22;4934;50.852;8.098;2022-07-01T12:04:37;23.00;99.90
9790;DHT22;4934;50.852;8.098;2022-07-01T12:07:03;22.50;99.90
9790;DHT22;4934;50.852;8.098;2022-07-01T12:09:29;22.00;99.90
9790;DHT22;4934;50.852;8.098;2022-07-01T12:11:55;21.80;99.90
9790;DHT22;4934;50.852;8.098;2022-07-01T12:14:25;22.20;99.90
9790;DHT22;4934;50.852;8.098;2022-07-01T12:16:53;22.80;99.90
9790;DHT22;4934;50.852;8.098;2022-07-01T12:19:19;23.30;99.90
9790;DHT22;4934;50.852;8.098;2022-07-01T12:22:07;23.80;99.90
9790;DHT22;4934;50.852;8.098;2022-07-01T12:24:33;24.00;99.90
9790;DHT22;4934;50.852;8.098;2022-07-01T12:29:27;22.70;99.90
9790;DHT22;4934;50.852;8.098;2022-07-01T12:31:58;21.40;99.90
9790;DHT22;4934;50.852;8.098;2022-07-01T12:34:39;21.50;99.90
9790;DHT22;4934;50.852;8.098;2022-07-01T12:39:54;20.80;99.90
9790;DHT22;4934;50.852;8.098;2022-07-01T12:42:35;20.70;99.90
9790;DHT22;4934;50.852;8.098;2022-07-01T12:45:06;20.80;99.90
9790;DHT22;4934;50.852;8.098;2022-07-01T12:47:41;21.70;99.90
9790;DHT22;4934;50.852;8.098;2022-07-01T12:50:20;21.80;99.90
9790;DHT22;4934;50.852;8.098;2022-07-01T12:53:07;21.70;99.90
9790;DHT22;4934;50.852;8.098;2022-07-01T12:55:35;21.30;99.90
9790;DHT22;4934;50.852;8.098;2022-07-01T12:58:02;20.00;99.90
9790;DHT22;4934;50.852;8.098;2022-07-01T13:00:29;20.00;99.90
9790;DHT22;4934;50.852;8.098;2022-07-01T13:02:58;20.40;99.90
9790;DHT22;4934;50.852;8.098;2022-07-01T13:05:23;20.50;99.90
9790;DHT22;4934;50.852;8.098;2022-07-01T13:07:50;20.50;99.90
9790;DHT22;4934;50.852;8.098;2022-07-01T13:10:16;20.60;99.90
9790;DHT22;4934;50.852;8.098;2022-07-01T13:12:43;20.80;99.90
9790;DHT22;4934;50.852;8.098;2022-07-01T13:15:10;21.00;99.90
9790;DHT22;4934;50.852;8.098;2022-07-01T13:17:36;21.00;99.90
9790;DHT22;4934;50.852;8.098;2022-07-01T13:20:02;21.40;99.90
9790;DHT22;4934;50.852;8.098;2022-07-01T13:22:28;21.70;99.90
9790;DHT22;4934;50.852;8.098;2022-07-01T13:24:53;22.00;99.90
9790;DHT22;4934;50.852;8.098;2022-07-01T13:27:19;22.60;99.90
9790;DHT22;4934;50.852;8.098;2022-07-01T13:29:46;23.10;99.90
9790;DHT22;4934;50.852;8.098;2022-07-01T13:32:11;23.40;99.90
9790;DHT22;4934;50.852;8.098;2022-07-01T13:34:37;22.20;99.90
9790;DHT22;4934;50.852;8.098;2022-07-01T13:37:03;21.30;99.90
9790;DHT22;4934;50.852;8.098;2022-07-01T13:39:31;21.60;99.90
9790;DHT22;4934;50.852;8.098;2022-07-01T13:41:57;21.60;99.90
9790;DHT22;4934;50.852;8.098;2022-07-01T13:44:23;22.30;99.90
9790;DHT22;4934;50.852;8.098;2022-07-01T13:46:49;22.20;99.90
9790;DHT22;4934;50.852;8.098;2022-07-01T13:49:14;21.20;99.90
9790;DHT22;4934;50.852;8.098;2022-07-01T13:51:40;20.90;99.90
9790;DHT22;4934;50.852;8.098;2022-07-01T13:54:06;20.80;99.90
9790;DHT22;4934;50.852;8.098;2022-07-01T13:56:32;21.20;99.90
9790;DHT22;4934;50.852;8.098;2022-07-01T13:58:57;21.60;99.90
9790;DHT22;4934;50.852;8.098;2022-07-01T14:01:23;21.60;99.90
9790;DHT22;4934;50.852;8.098;2022-07-01T14:03:49;21.40;99.90
9790;DHT22;4934;50.852;8.098;2022-07-01T14:06:16;21.20;99.90
9790;DHT22;4934;50.852;8.098;2022-07-01T14:08:41;21.50;99.90
9790;DHT22;4934;50.852;8.098;2022-07-01T14:11:07;21.60;99.90
9790;DHT22;4934;50.852;8.098;2022-07-01T14:13:33;21.60;99.90
9790;DHT22;4934;50.852;8.098;2022-07-01T14:16:01;21.10;99.90
9790;DHT22;4934;50.852;8.098;2022-07-01T14:18:27;21.50;99.90
9790;DHT22;4934;50.852;8.098;2022-07-01T14:20:53;21.30;99.90
9790;DHT22;4934;50.852;8.098;2022-07-01T14:23:19;20.90;99.90
9790;DHT22;4934;50.852;8.098;2022-07-01T14:25:45;21.10;99.90
9790;DHT22;4934;50.852;8.098;2022-07-01T14:28:11;21.00;99.90
9790;DHT22;4934;50.852;8.098;2022-07-01T14:30:37;21.30;99.90
9790;DHT22;4934;50.852;8.098;2022-07-01T14:33:03;21.20;99.90
9790;DHT22;4934;50.852;8.098;2022-07-01T14:35:29;21.50;99.90
9790;DHT22;4934;50.852;8.098;2022-07-01T14:37:55;21.60;99.90
9790;DHT22;4934;50.852;8.098;2022-07-01T14:40:20;21.80;99.90
9790;DHT22;4934;50.852;8.098;2022-07-01T14:42:46;22.00;99.90
9790;DHT22;4934;50.852;8.098;2022-07-01T14:45:12;22.20;99.90
9790;DHT22;4934;50.852;8.098;2022-07-01T14:47:43;22.40;99.90
9790;DHT22;4934;50.852;8.098;2022-07-01T14:50:09;22.40;99.90
9790;DHT22;4934;50.852;8.098;2022-07-01T14:52:35;22.00;99.90
9790;DHT22;4934;50.852;8.098;2022-07-01T14:55:02;21.70;99.90
9790;DHT22;4934;50.852;8.098;2022-07-01T14:57:28;21.70;99.90
9790;DHT22;4934;50.852;8.098;2022-07-01T14:59:53;21.50;99.90
9790;DHT22;4934;50.852;8.098;2022-07-01T15:02:19;21.60;99.90
9790;DHT22;4934;50.852;8.098;2022-07-01T15:04:45;21.60;99.90
9790;DHT22;4934;50.852;8.098;2022-07-01T15:07:12;21.60;99.90
9790;DHT22;4934;50.852;8.098;2022-07-01T15:09:37;21.50;99.90
9790;DHT22;4934;50.852;8.098;2022-07-01T15:12:04;21.80;99.90
9790;DHT22;4934;50.852;8.098;2022-07-01T15:14:29;22.20;99.90
9790;DHT22;4934;50.852;8.098;2022-07-01T15:16:55;22.30;99.90
9790;DHT22;4934;50.852;8.098;2022-07-01T15:19:21;22.40;99.90
9790;DHT22;4934;50.852;8.098;2022-07-01T15:21:47;22.60;99.90
9790;DHT22;4934;50.852;8.098;2022-07-01T15:24:12;22.80;99.90
9790;DHT22;4934;50.852;8.098;2022-07-01T15:26:38;22.60;99.90
9790;DHT22;4934;50.852;8.098;2022-07-01T15:29:04;22.10;99.90
9790;DHT22;4934;50.852;8.098;2022-07-01T15:31:30;22.10;99.90
9790;DHT22;4934;50.852;8.098;2022-07-01T15:33:55;21.80;99.90
9790;DHT22;4934;50.852;8.098;2022-07-01T15:36:21;21.90;99.90
9790;DHT22;4934;50.852;8.098;2022-07-01T15:38:47;21.90;99.90
9790;DHT22;4934;50.852;8.098;2022-07-01T15:41:12;21.50;99.90
9790;DHT22;4934;50.852;8.098;2022-07-01T15:43:38;21.80;99.90
9790;DHT22;4934;50.852;8.098;2022-07-01T15:46:06;22.30;99.90
9790;DHT22;4934;50.852;8.098;2022-07-01T15:48:32;22.60;99.90
9790;DHT22;4934;50.852;8.098;2022-07-01T15:50:57;23.00;99.90
9790;DHT22;4934;50.852;8.098;2022-07-01T15:53:23;23.20;99.90
9790;DHT22;4934;50.852;8.098;2022-07-01T15:55:49;23.40;99.90
9790;DHT22;4934;50.852;8.098;2022-07-01T15:58:17;23.30;99.90
9790;DHT22;4934;50.852;8.098;2022-07-01T16:00:45;22.90;99.90
9790;DHT22;4934;50.852;8.098;2022-07-01T16:03:11;22.80;99.90
9790;DHT22;4934;50.852;8.098;2022-07-01T16:05:37;22.80;99.90
9790;DHT22;4934;50.852;8.098;2022-07-01T16:08:06;22.90;99.90
9790;DHT22;4934;50.852;8.098;2022-07-01T16:10:47;23.10;99.90
9790;DHT22;4934;50.852;8.098;2022-07-01T16:13:17;23.40;99.90
9790;DHT22;4934;50.852;8.098;2022-07-01T16:15:51;23.80;99.90
9790;DHT22;4934;50.852;8.098;2022-07-01T16:18:17;23.80;99.90
9790;DHT22;4934;50.852;8.098;2022-07-01T16:20:48;23.60;99.90
9790;DHT22;4934;50.852;8.098;2022-07-01T16:23:34;23.20;99.90
9790;DHT22;4934;50.852;8.098;2022-07-01T16:26:07;23.00;99.90